Time;durP1;ratioP1;P1;durP2;ratioP2;P2;SDS_P1;SDS_P2;PMS_P1;PMS_P2;Temp;Humidity;BMP_temperature;BMP_pressure;BME280_temperature;BME280_humidity;BME280_pressure;Samples;Min_cycle;Max_cycle;Signal;HPM_P1;HPM_P2
2022/06/19 00:01:31;;;;;;;4.97;1.83;;;;;;;-148.88;76.75;74455.13;5029690;28;20392;-85
2022/06/19 00:03:56;;;;;;;3.63;1.90;;;;;;;-148.88;77.08;74457.16;5014382;28;20037;-85
2022/06/19 00:06:39;;;;;;;6.03;1.90;;;;;;;-148.88;76.92;74457.16;5014483;28;20026;-85
2022/06/19 00:09:17;;;;;;;3.97;1.70;;;;;;;-148.88;76.49;74453.09;5014172;28;20036;-85
2022/06/19 00:11:42;;;;;;;3.55;2.05;;;;;;;-148.88;76.53;74447.00;5033402;28;20420;-85
2022/06/19 00:14:09;;;;;;;4.13;1.65;;;;;;;-148.88;76.77;74449.03;5029953;28;20045;-85
2022/06/19 00:16:35;;;;;;;7.10;2.40;;;;;;;-148.88;76.69;74457.16;5014199;28;20488;-85
2022/06/19 00:19:02;;;;;;;4.07;1.65;;;;;;;-148.88;77.03;74444.97;5014613;28;20029;-85
2022/06/19 00:21:28;;;;;;;5.07;1.85;;;;;;;-148.88;77.05;74444.97;5013574;28;20021;-85
2022/06/19 00:23:53;;;;;;;2.90;1.75;;;;;;;-148.88;76.69;74436.84;5014324;28;20101;-85
2022/06/19 00:26:18;;;;;;;3.92;2.00;;;;;;;-148.88;76.74;74432.78;5012840;28;20033;-85
2022/06/19 00:28:46;;;;;;;3.17;1.80;;;;;;;-148.88;77.18;74440.91;5029044;28;20022;-85
2022/06/19 00:31:12;;;;;;;3.53;1.92;;;;;;;-148.88;77.51;74461.22;5029238;28;20026;-84
2022/06/19 00:33:37;;;;;;;4.63;2.03;;;;;;;-148.88;78.15;74449.03;5013006;28;20025;-85
2022/06/19 00:36:12;;;;;;;5.60;1.60;;;;;;;-148.88;78.08;74444.97;5014316;28;20033;-85
2022/06/19 00:38:40;;;;;;;4.03;2.10;;;;;;;-148.88;78.55;74447.00;5014299;28;20029;-85
2022/06/19 00:41:06;;;;;;;3.15;2.30;;;;;;;-148.88;78.57;74444.97;5028973;28;20021;-84
2022/06/19 00:43:54;;;;;;;3.58;2.17;;;;;;;-148.88;79.63;74449.03;5029714;28;20109;-85
2022/06/19 00:46:57;;;;;;;3.53;2.00;;;;;;;-148.88;79.43;74440.91;5018374;28;20026;-85
2022/06/19 00:49:33;;;;;;;4.30;2.20;;;;;;;-148.88;79.56;74440.91;5015262;28;20030;-85
2022/06/19 00:52:12;;;;;;;4.43;2.30;;;;;;;-148.88;79.93;74453.09;5014318;28;20064;-84
2022/06/19 00:55:03;;;;;;;4.32;2.10;;;;;;;-148.88;80.38;74451.06;5013711;28;20572;-85
2022/06/19 00:57:32;;;;;;;5.68;2.10;;;;;;;-148.88;80.10;74463.25;4994128;28;20504;-84
2022/06/19 01:00:03;;;;;;;5.50;2.60;;;;;;;-148.88;81.35;74499.81;5009625;28;20057;-85
2022/06/19 01:02:29;;;;;;;5.45;2.17;;;;;;;-148.88;83.68;74570.88;4992858;28;20121;-84
2022/06/19 01:04:55;;;;;;;4.68;1.77;;;;;;;-148.88;82.76;74556.66;4993062;28;20060;-84
2022/06/19 01:07:28;;;;;;;4.82;2.40;;;;;;;-148.88;84.53;74587.13;5010094;28;20026;-85
2022/06/19 01:09:54;;;;;;;3.65;1.70;;;;;;;-148.88;84.40;74597.25;4992144;28;20420;-85
2022/06/19 01:12:28;;;;;;;2.45;1.80;;;;;;;-148.88;83.90;74570.88;4994041;28;20531;-86
2022/06/19 01:15:10;;;;;;;3.70;1.85;;;;;;;-148.88;83.03;74562.75;4994436;28;20101;-85
2022/06/19 01:17:41;;;;;;;4.93;1.92;;;;;;;-148.88;84.90;74574.94;5008262;28;20054;-85
2022/06/19 01:20:11;;;;;;;3.90;2.00;;;;;;;-148.88;83.89;74574.94;4992744;28;20038;-84
2022/06/19 01:22:58;;;;;;;3.38;1.75;;;;;;;-148.88;84.83;74579.00;5009129;28;20114;-85
2022/06/19 01:25:32;;;;;;;3.78;1.98;;;;;;;-148.88;84.02;74570.88;4994602;28;20031;-85
2022/06/19 01:30:50;;;;;;;4.20;2.20;;;;;;;-148.88;84.21;74570.88;4994272;28;20053;-84
2022/06/19 01:33:20;;;;;;;3.95;2.13;;;;;;;-148.88;84.19;74550.56;5008150;28;20488;-85
2022/06/19 01:35:51;;;;;;;6.55;2.00;;;;;;;-148.88;84.73;74574.94;4993818;28;20031;-84
2022/06/19 01:38:20;;;;;;;5.28;2.33;;;;;;;-148.88;87.08;74601.31;4994548;28;20022;-84
2022/06/19 01:41:00;;;;;;;6.72;1.98;;;;;;;-148.88;86.77;74593.22;4993625;28;20370;-84
2022/06/19 01:43:29;;;;;;;5.05;2.00;;;;;;;-148.88;86.58;74574.94;4994041;28;20053;-84
2022/06/19 01:45:56;;;;;;;5.15;2.28;;;;;;;-148.88;86.33;74589.16;4993958;28;20438;-85
2022/06/19 01:48:27;;;;;;;7.55;2.70;;;;;;;-148.88;86.26;74574.94;5008471;28;20026;-85
2022/06/19 01:50:53;;;;;;;5.00;1.90;;;;;;;-148.88;86.93;74583.06;4992028;28;20034;-85
2022/06/19 01:53:45;;;;;;;6.20;2.47;;;;;;;-148.88;88.86;74619.59;4997502;28;20089;-85
2022/06/19 01:56:12;;;;;;;4.75;2.28;;;;;;;-148.88;90.19;74664.28;4984786;28;20046;-84
2022/06/19 01:58:50;;;;;;;4.55;2.17;;;;;;;-148.88;89.43;74660.22;4997087;28;20066;-85
2022/06/19 02:01:49;;;;;;;3.45;2.33;;;;;;;-148.88;91.46;74696.78;5012262;28;20505;-85
2022/06/19 02:04:18;;;;;;;3.67;2.13;;;;;;;-148.88;91.30;74700.84;5008355;28;20554;-85
2022/06/19 02:06:50;;;;;;;4.05;2.10;;;;;;;-148.88;91.71;74713.00;4996596;28;20057;-85
2022/06/19 02:09:21;;;;;;;4.40;2.10;;;;;;;-148.88;91.86;74715.03;5012678;28;20030;-85
2022/06/19 02:11:50;;;;;;;5.78;2.30;;;;;;;-148.88;91.89;74696.78;4997012;28;20480;-84
2022/06/19 02:14:28;;;;;;;4.13;2.35;;;;;;;-148.88;90.20;74678.50;4998215;28;20048;-84
2022/06/19 02:17:06;;;;;;;5.47;2.40;;;;;;;-148.88;91.62;74700.84;5011844;28;20038;-84
2022/06/19 02:19:31;;;;;;;7.40;2.55;;;;;;;-148.88;90.95;74696.78;4997107;28;20023;-84
2022/06/19 02:21:57;;;;;;;5.82;2.08;;;;;;;-148.88;90.18;74684.59;4996928;28;20022;-84
2022/06/19 02:24:27;;;;;;;4.82;2.00;;;;;;;-148.88;89.80;74686.63;4997152;28;20026;-85
2022/06/19 02:27:04;;;;;;;6.72;2.40;;;;;;;-148.88;90.80;74692.72;5012578;28;20109;-85
2022/06/19 02:29:36;;;;;;;8.48;2.20;;;;;;;-148.88;90.19;74676.47;5012406;28;20045;-86
2022/06/19 02:32:02;;;;;;;8.23;2.70;;;;;;;-148.88;89.59;74674.44;4996526;28;20396;-85
2022/06/19 02:34:36;;;;;;;6.22;2.30;;;;;;;-148.88;90.31;74676.47;5011561;28;20374;-85
2022/06/19 02:37:05;;;;;;;3.97;2.10;;;;;;;-148.88;89.54;74678.50;4996518;28;20026;-85
2022/06/19 02:39:40;;;;;;;5.00;2.42;;;;;;;-148.88;91.50;74721.13;5011700;28;20019;-84
2022/06/19 02:42:20;;;;;;;6.75;2.42;;;;;;;-148.88;91.04;74684.59;5011892;28;20030;-85
2022/06/19 02:44:54;;;;;;;5.78;2.40;;;;;;;-148.88;90.09;74666.31;4996303;28;20149;-85
2022/06/19 02:47:29;;;;;;;3.78;1.95;;;;;;;-148.88;88.77;74656.16;5011562;28;20084;-85
2022/06/19 02:49:54;;;;;;;4.95;1.92;;;;;;;-148.88;88.41;74666.31;4996840;28;20121;-85
2022/06/19 02:52:28;;;;;;;2.72;1.52;;;;;;;-148.88;88.11;74666.31;4996169;28;20101;-85
2022/06/19 02:54:53;;;;;;;5.10;2.00;;;;;;;-148.88;87.55;74664.28;5012175;28;20026;-85
2022/06/19 02:57:19;;;;;;;3.95;1.70;;;;;;;-148.88;87.39;74656.16;4996343;28;20038;-85
2022/06/19 02:59:44;;;;;;;4.82;1.55;;;;;;;-148.88;87.35;74664.28;4996028;28;20440;-85
2022/06/19 03:02:12;;;;;;;3.80;1.98;;;;;;;-148.88;88.50;74684.59;4995375;28;20058;-85
2022/06/19 03:05:00;;;;;;;3.78;1.70;;;;;;;-148.88;88.77;74684.59;5011242;28;20022;-85
2022/06/19 03:07:29;;;;;;;6.47;2.20;;;;;;;-148.88;87.70;74676.47;4996641;28;20031;-85
2022/06/19 03:09:58;;;;;;;6.65;2.40;;;;;;;-148.88;87.18;74668.34;5011087;28;20053;-85
2022/06/19 03:12:24;;;;;;;4.43;2.00;;;;;;;-148.88;86.84;74658.19;5031782;23;20515;-84
2022/06/19 03:14:50;;;;;;;5.63;2.10;;;;;;;-148.88;86.18;74652.09;5015443;28;20033;-83
2022/06/19 03:17:19;;;;;;;5.85;2.20;;;;;;;-148.88;86.29;74646.00;5014217;28;20021;-83
2022/06/19 03:19:45;;;;;;;7.68;1.90;;;;;;;-148.88;85.29;74648.03;5014979;28;20061;-82
2022/06/19 03:22:11;;;;;;;5.20;1.52;;;;;;;-148.88;82.98;74660.22;5013513;28;20393;-84
2022/06/19 03:24:37;;;;;;;7.57;1.80;;;;;;;-148.88;83.06;74670.38;5013358;28;20058;-84
2022/06/19 03:27:03;;;;;;;6.18;1.63;;;;;;;-148.88;82.99;74664.28;5013936;28;20057;-84
2022/06/19 03:29:29;;;;;;;5.70;1.73;;;;;;;-148.88;83.09;74660.22;5013612;28;20053;-84
2022/06/19 03:31:54;;;;;;;4.20;1.45;;;;;;;-148.88;81.89;74660.22;5013835;28;20026;-83
2022/06/19 03:34:19;;;;;;;5.45;1.85;;;;;;;-148.88;82.10;74676.47;5014636;28;20088;-83
2022/06/19 03:36:45;;;;;;;5.38;1.85;;;;;;;-148.88;84.34;74767.84;5015110;28;20033;-83
2022/06/19 03:39:10;;;;;;;8.48;1.95;;;;;;;-148.88;85.62;74828.75;5015940;28;20465;-83
2022/06/19 03:41:37;;;;;;;9.95;1.95;;;;;;;-148.88;84.90;74830.78;5015577;28;20018;-84
2022/06/19 03:44:02;;;;;;;7.13;2.15;;;;;;;-148.88;83.74;74806.44;5031838;28;20034;-84
2022/06/19 03:46:27;;;;;;;5.90;1.75;;;;;;;-148.88;83.17;74788.16;5015385;28;20105;-83
2022/06/19 03:48:53;;;;;;;11.80;2.50;;;;;;;-148.88;82.30;74771.91;5015480;28;20511;-83
2022/06/19 03:51:23;;;;;;;9.13;1.98;;;;;;;-148.88;82.16;74794.25;5015023;28;20061;-83
2022/06/19 03:53:49;;;;;;;5.47;1.65;;;;;;;-148.88;82.12;74782.06;5016125;28;20538;-80
2022/06/19 03:56:17;;;;;;;8.52;2.45;;;;;;;-148.88;81.84;74761.75;5015069;28;20042;-83
2022/06/19 03:58:45;;;;;;;7.68;2.13;;;;;;;-148.88;81.48;74757.69;5029146;28;20050;-83
2022/06/19 04:01:20;;;;;;;14.35;2.33;;;;;;;-148.88;81.79;74765.81;5014164;28;20036;-83
2022/06/19 04:03:48;;;;;;;9.90;2.30;;;;;;;-148.88;81.31;74773.94;5015155;28;20029;-83
2022/06/19 04:06:16;;;;;;;6.85;1.95;;;;;;;-148.88;81.09;74765.81;5014592;28;20025;-83
2022/06/19 04:08:44;;;;;;;11.05;2.60;;;;;;;-148.88;81.06;74773.94;5015301;28;20033;-83
2022/06/19 04:11:10;;;;;;;13.95;2.67;;;;;;;-148.88;80.93;74782.06;5029445;28;20065;-82
2022/06/19 04:13:36;;;;;;;9.43;2.60;;;;;;;-148.88;82.29;74828.75;5015049;28;20100;-84
2022/06/19 04:16:03;;;;;;;13.98;2.80;;;;;;;-148.88;83.44;74855.16;5030792;28;20021;-82
2022/06/19 04:18:29;;;;;;;14.18;2.95;;;;;;;-148.88;81.70;74834.84;5014476;28;20032;-82
2022/06/19 04:20:56;;;;;;;11.57;3.05;;;;;;;-148.88;82.02;74855.16;5014867;28;20033;-84
2022/06/19 04:23:22;;;;;;;11.43;3.38;;;;;;;-148.88;82.66;74875.47;5015439;28;20025;-85
2022/06/19 04:25:48;;;;;;;14.50;3.30;;;;;;;-148.88;82.64;74871.41;5014552;28;20029;-84
2022/06/19 04:28:14;;;;;;;11.18;2.85;;;;;;;-148.88;82.67;74885.63;5014030;28;20064;-85
2022/06/19 04:30:46;;;;;;;11.38;2.80;;;;;;;-148.88;83.13;74895.78;5030067;28;20026;-84
2022/06/19 04:33:11;;;;;;;10.05;2.53;;;;;;;-148.88;82.39;74873.44;5030322;28;20032;-83
2022/06/19 04:35:37;;;;;;;16.25;2.90;;;;;;;-148.88;83.03;74883.59;5014391;28;20022;-85
2022/06/19 04:38:02;;;;;;;15.63;3.35;;;;;;;-148.88;82.32;74899.84;5013645;28;20104;-86
2022/06/19 04:40:28;;;;;;;13.55;3.00;;;;;;;-148.88;81.63;74883.59;5013780;28;20037;-84
2022/06/19 04:42:54;;;;;;;14.27;2.97;;;;;;;-148.88;81.66;74916.09;5012599;28;20080;-85
2022/06/19 04:45:19;;;;;;;15.63;3.33;;;;;;;-148.88;81.93;74932.34;5014504;28;20029;-83
2022/06/19 04:47:44;;;;;;;16.63;3.30;;;;;;;-148.88;81.50;74912.03;5014238;28;20038;-84
2022/06/19 04:50:10;;;;;;;14.30;3.13;;;;;;;-148.88;81.38;74920.16;5014692;28;20026;-84
2022/06/19 04:52:35;;;;;;;16.15;3.28;;;;;;;-148.88;80.80;74916.09;5013703;28;20029;-84
2022/06/19 04:55:00;;;;;;;20.73;3.58;;;;;;;-148.88;80.80;74916.09;5015451;28;20058;-84
2022/06/19 04:57:25;;;;;;;12.20;2.83;;;;;;;-148.88;80.33;74912.03;5030500;28;20037;-84
2022/06/19 04:59:51;;;;;;;10.48;2.70;;;;;;;-148.88;80.05;74895.78;5016212;28;20091;-84
2022/06/19 05:02:16;;;;;;;10.10;3.30;;;;;;;-148.88;79.20;74907.97;5014593;28;20392;-85
2022/06/19 05:04:41;;;;;;;13.45;3.03;;;;;;;-148.88;79.51;74891.72;5015412;28;20026;-84
2022/06/19 05:07:07;;;;;;;13.55;3.20;;;;;;;-148.88;78.80;74889.69;5014593;28;20053;-86
2022/06/19 05:09:32;;;;;;;11.38;2.72;;;;;;;-148.88;78.03;74887.66;5014086;28;20029;-81
2022/06/19 05:11:58;;;;;;;13.95;2.85;;;;;;;-148.88;77.15;74901.88;5014912;28;20065;-84
2022/06/19 05:14:23;;;;;;;17.58;3.35;;;;;;;-148.88;76.56;74936.41;5014687;28;20061;-84
2022/06/19 05:16:49;;;;;;;13.68;2.88;;;;;;;-148.88;75.78;74940.47;5013889;28;20022;-84
2022/06/19 05:19:15;;;;;;;9.23;2.50;;;;;;;-148.88;75.98;74940.47;5013563;28;20088;-83
2022/06/19 05:21:40;;;;;;;15.32;2.70;;;;;;;-148.88;75.18;74944.53;5014195;28;20480;-83
2022/06/19 05:24:15;;;;;;;9.85;2.40;;;;;;;-148.88;74.61;74936.41;5042798;23;20393;-73
2022/06/19 05:26:40;;;;;;;11.65;2.50;;;;;;;-148.88;73.67;74930.31;4995791;28;20038;-73
2022/06/19 05:29:05;;;;;;;10.43;2.90;;;;;;;-148.88;73.44;74934.38;4997716;28;20022;-73
2022/06/19 05:31:33;;;;;;;13.93;2.45;;;;;;;-148.88;72.87;74922.19;4998028;28;20038;-73
2022/06/19 05:33:59;;;;;;;12.18;2.30;;;;;;;-148.88;71.39;74950.59;4997713;28;20022;-72
2022/06/19 05:36:28;;;;;;;13.38;2.67;;;;;;;-148.88;71.23;74964.81;4996405;28;20077;-73
2022/06/19 05:38:54;;;;;;;13.55;2.58;;;;;;;-148.88;71.89;74930.31;4997612;28;20026;-73
2022/06/19 05:41:19;;;;;;;10.98;2.75;;;;;;;-148.88;71.39;74889.69;4997495;28;20050;-73
2022/06/19 05:43:49;;;;;;;12.02;2.60;;;;;;;-148.88;71.86;74916.09;4996267;28;20184;-72
2022/06/19 05:46:16;;;;;;;12.45;2.67;;;;;;;-148.88;71.05;74920.16;4996223;28;20026;-73
2022/06/19 05:48:42;;;;;;;16.00;2.38;;;;;;;-148.88;72.20;74903.91;4996153;28;20045;-73
2022/06/19 05:51:14;;;;;;;12.27;2.60;;;;;;;-148.88;70.39;74903.91;4996042;28;20121;-73
2022/06/19 05:53:43;;;;;;;13.82;3.05;;;;;;;-148.88;70.19;74869.38;4996112;28;20034;-73
2022/06/19 05:56:10;;;;;;;15.35;3.05;;;;;;;-148.88;69.70;74857.19;4984675;28;20085;-73
2022/06/19 05:58:36;;;;;;;11.85;2.58;;;;;;;-148.88;70.36;74855.16;4977499;28;20436;-73
2022/06/19 06:01:02;;;;;;;16.48;2.78;;;;;;;-148.88;69.71;74859.22;4977332;28;20505;-73
2022/06/19 06:03:28;;;;;;;12.25;2.30;;;;;;;-148.88;71.05;74851.09;4977641;28;20034;-73
2022/06/19 06:05:59;;;;;;;9.48;2.20;;;;;;;-148.88;70.84;74836.88;4976425;28;20058;-73
2022/06/19 06:08:24;;;;;;;13.43;2.83;;;;;;;-148.88;69.63;74830.78;4977770;28;20058;-73
2022/06/19 06:10:50;;;;;;;12.27;2.40;;;;;;;-148.88;69.67;74836.88;4977480;28;20031;-73
2022/06/19 06:13:15;;;;;;;10.45;2.10;;;;;;;-148.88;69.44;74847.03;4977597;28;20110;-73
2022/06/19 06:15:41;;;;;;;13.38;3.33;;;;;;;-148.88;69.40;74826.72;4976269;28;20027;-73
2022/06/19 06:18:06;;;;;;;10.80;2.05;;;;;;;-148.88;69.16;74798.31;4977346;28;20136;-73
2022/06/19 06:20:31;;;;;;;11.40;2.20;;;;;;;-148.88;68.66;74800.34;4976121;28;20042;-73
2022/06/19 06:22:57;;;;;;;9.60;2.00;;;;;;;-148.88;67.54;74786.13;4977291;28;20027;-73
2022/06/19 06:25:23;;;;;;;10.77;2.28;;;;;;;-148.88;67.69;74786.13;4977254;28;20085;-73
2022/06/19 06:27:49;;;;;;;9.15;1.90;;;;;;;-148.88;65.62;74775.97;4975976;28;20023;-73
2022/06/19 06:30:24;;;;;;;12.05;2.20;;;;;;;-148.88;64.59;74761.75;4975926;28;20046;-73
2022/06/19 06:32:49;;;;;;;9.32;1.92;;;;;;;-148.88;64.91;74761.75;4975852;28;20030;-73
2022/06/19 06:35:15;;;;;;;7.85;1.77;;;;;;;-148.88;62.31;74767.84;4975881;28;20031;-73
2022/06/19 06:37:40;;;;;;;10.88;2.10;;;;;;;-148.88;62.24;74773.94;4975513;28;20369;-74
2022/06/19 06:40:15;;;;;;;11.65;1.80;;;;;;;-148.88;61.40;74735.34;4977029;28;20400;-74
2022/06/19 06:42:40;;;;;;;11.27;1.90;;;;;;;-148.88;60.53;74717.06;4991914;28;20022;-73
2022/06/19 06:45:07;;;;;;;9.38;1.80;;;;;;;-148.88;61.14;74721.13;4977050;28;20102;-73
2022/06/19 06:47:32;;;;;;;7.05;1.63;;;;;;;-148.88;60.41;74692.72;4991862;28;20166;-73
2022/06/19 06:50:15;;;;;;;10.05;1.92;;;;;;;-148.88;60.34;74696.78;4975632;28;20113;-73
2022/06/19 06:52:41;;;;;;;6.65;1.48;;;;;;;-148.88;58.77;74700.84;4975490;28;20027;-73
2022/06/19 06:55:06;;;;;;;9.18;1.52;;;;;;;-148.88;57.46;74696.78;4976995;28;20038;-73
2022/06/19 06:57:32;;;;;;;9.95;1.80;;;;;;;-148.88;57.63;74676.47;4976566;28;20166;-73
2022/06/19 07:00:18;;;;;;;7.45;1.50;;;;;;;-148.88;56.86;74672.41;4977112;28;20038;-73
2022/06/19 07:02:44;;;;;;;7.85;2.13;;;;;;;-148.88;57.85;74654.13;4975355;28;20073;-73
2022/06/19 07:05:10;;;;;;;8.88;1.92;;;;;;;-148.88;57.55;74646.00;4976719;28;20027;-73
2022/06/19 07:07:35;;;;;;;11.32;1.67;;;;;;;-148.88;55.67;74648.03;4991537;28;20035;-73
2022/06/19 07:10:00;;;;;;;7.15;1.60;;;;;;;-148.88;56.45;74629.75;4975254;28;20066;-73
2022/06/19 07:12:25;;;;;;;7.68;1.88;;;;;;;-148.88;55.55;74615.53;4976442;28;20026;-73
2022/06/19 07:14:51;;;;;;;6.40;1.50;;;;;;;-148.88;55.33;74609.44;4975138;28;20085;-73
2022/06/19 07:17:17;;;;;;;7.10;1.60;;;;;;;-148.88;54.74;74585.09;4991368;28;20050;-73
2022/06/19 07:19:42;;;;;;;10.35;1.73;;;;;;;-148.88;54.00;74589.16;4975039;28;20065;-73
2022/06/19 07:22:12;;;;;;;6.93;1.77;;;;;;;-148.88;54.88;74603.34;4976389;28;20038;-72
2022/06/19 07:24:37;;;;;;;8.85;1.73;;;;;;;-148.88;56.09;74579.00;4976158;28;20031;-73
2022/06/19 07:27:03;;;;;;;7.13;1.83;;;;;;;-148.88;55.51;74583.06;4976697;28;20035;-73
2022/06/19 07:29:28;;;;;;;8.65;2.22;;;;;;;-148.88;54.02;74566.81;4976088;28;20018;-73
2022/06/19 07:31:54;;;;;;;8.57;1.55;;;;;;;-148.88;55.46;74546.50;4991022;28;20050;-73
2022/06/19 07:34:19;;;;;;;11.02;2.05;;;;;;;-148.88;55.37;74554.63;4975997;28;20022;-73
2022/06/19 07:36:45;;;;;;;9.65;1.98;;;;;;;-148.88;55.61;74550.56;4974738;28;20495;-73
2022/06/19 07:39:10;;;;;;;11.02;1.90;;;;;;;-148.88;55.25;74599.28;4974651;28;20046;-73
2022/06/19 07:41:35;;;;;;;6.47;2.08;;;;;;;-148.88;55.31;74633.81;4975355;28;20031;-73
2022/06/19 07:44:01;;;;;;;7.47;1.88;;;;;;;-148.88;55.10;74611.47;4975704;28;20038;-73
2022/06/19 07:46:26;;;;;;;7.53;1.90;;;;;;;-148.88;54.26;74607.41;4975492;28;20027;-73
2022/06/19 07:51:36;;;;;;;7.07;1.50;;;;;;;-148.88;57.16;74611.47;4976003;28;20115;-73
2022/06/19 07:54:01;;;;;;;11.45;2.28;;;;;;;-148.88;56.25;74595.25;4990626;28;20502;-73
2022/06/19 07:56:27;;;;;;;5.45;1.48;;;;;;;-148.88;55.00;74591.19;4990554;28;20026;-73
2022/06/19 07:58:53;;;;;;;9.05;2.05;;;;;;;-148.88;56.53;74579.00;4975512;28;20023;-73
2022/06/19 08:01:18;;;;;;;7.03;1.80;;;;;;;-148.88;57.28;74576.97;4975558;28;20034;-73
2022/06/19 08:03:44;;;;;;;8.50;1.60;;;;;;;-148.88;56.17;74595.25;4990457;28;20023;-73
2022/06/19 08:06:09;;;;;;;9.80;1.88;;;;;;;-148.88;55.95;74591.19;4974221;28;20472;-73
2022/06/19 08:08:35;;;;;;;7.18;1.73;;;;;;;-148.88;57.68;74597.25;4975429;28;20027;-73
2022/06/19 08:11:01;;;;;;;7.85;1.98;;;;;;;-148.88;57.49;74583.06;4990236;28;20022;-73
2022/06/19 08:13:30;;;;;;;5.90;1.83;;;;;;;-148.88;57.34;74587.13;4990295;28;20026;-73
2022/06/19 08:15:58;;;;;;;8.90;2.25;;;;;;;-148.88;56.63;74599.28;4975269;28;20027;-73
2022/06/19 08:18:24;;;;;;;6.63;1.92;;;;;;;-148.88;57.34;74583.06;4975168;28;20042;-73
2022/06/19 08:20:49;;;;;;;10.73;2.20;;;;;;;-148.88;55.54;74597.25;4973948;28;20038;-73
2022/06/19 08:23:15;;;;;;;9.48;1.98;;;;;;;-148.88;57.10;74587.13;4975297;28;20030;-73
2022/06/19 08:25:41;;;;;;;8.82;2.03;;;;;;;-148.88;56.23;74591.19;4974772;28;20480;-71
2022/06/19 08:28:07;;;;;;;12.10;2.03;;;;;;;-148.88;56.27;74589.16;4989986;28;20019;-72
2022/06/19 08:30:36;;;;;;;8.80;1.95;;;;;;;-148.88;56.65;74585.09;4975162;28;20026;-73
2022/06/19 08:33:03;;;;;;;10.05;1.80;;;;;;;-148.88;56.93;74568.84;4974938;28;20022;-72
2022/06/19 08:35:32;;;;;;;12.30;2.28;;;;;;;-148.88;57.20;74554.63;4989868;28;20030;-73
2022/06/19 08:38:02;;;;;;;10.23;2.50;;;;;;;-148.88;57.23;74558.69;4973605;28;20473;-72
2022/06/19 08:40:40;;;;;;;12.07;2.53;;;;;;;-148.88;56.26;74550.56;4989822;28;20085;-73
2022/06/19 08:43:11;;;;;;;6.32;2.20;;;;;;;-148.88;56.25;74520.09;4990008;28;20028;-73
2022/06/19 08:45:47;;;;;;;8.07;2.25;;;;;;;-148.88;56.60;74526.19;4973559;28;20113;-73
2022/06/19 08:48:35;;;;;;;8.93;2.20;;;;;;;-148.88;55.57;74524.16;4975417;28;20034;-77
2022/06/19 08:51:08;;;;;;;9.73;2.13;;;;;;;-148.88;55.94;74499.81;4974328;28;20066;-77
2022/06/19 08:53:51;;;;;;;9.70;2.65;;;;;;;-148.88;56.48;74509.94;4990660;28;20026;-77
2022/06/19 08:56:35;;;;;;;9.00;2.08;;;;;;;-148.88;55.38;74522.13;4990405;28;20485;-77
2022/06/19 08:59:15;;;;;;;8.60;2.08;;;;;;;-148.88;55.87;74505.88;4992207;28;20022;-77
2022/06/19 09:01:58;;;;;;;8.55;2.10;;;;;;;-148.88;56.70;74505.88;4974647;28;20029;-72
2022/06/19 09:08:11;;;;;;;11.73;3.13;;;;;;;-148.88;56.12;74505.88;4975139;28;20129;-72
2022/06/19 09:10:45;;;;;;;10.95;2.00;;;;;;;-148.88;57.34;74520.09;4974501;28;20123;-72
2022/06/19 09:13:13;;;;;;;7.90;2.20;;;;;;;-148.88;56.50;74499.81;4973202;28;20491;-72
2022/06/19 09:15:45;;;;;;;8.63;2.03;;;;;;;-148.88;56.79;74489.66;4973184;28;20042;-72
2022/06/19 09:18:38;;;;;;;7.00;2.22;;;;;;;-148.88;55.99;74497.78;4989470;28;20090;-72
2022/06/19 09:21:11;;;;;;;12.13;2.00;;;;;;;-148.88;55.74;74501.81;4974719;28;20510;-73
2022/06/19 09:24:31;;;;;;;12.55;2.53;;;;;;;-148.88;55.89;74520.09;4974431;28;20031;-72
2022/06/19 09:27:02;;;;;;;10.77;2.47;;;;;;;-148.88;55.65;74453.09;4972713;28;20410;-72
2022/06/19 09:29:34;;;;;;;6.63;1.92;;;;;;;-148.88;54.67;74451.06;4989399;28;20023;-72
2022/06/19 09:32:06;;;;;;;10.40;2.25;;;;;;;-148.88;55.51;74428.72;4989166;28;20023;-72
2022/06/19 09:34:45;;;;;;;10.00;2.17;;;;;;;-148.88;52.52;74384.06;4973125;28;20384;-73
2022/06/19 09:37:20;;;;;;;7.65;1.90;;;;;;;-148.88;53.59;74343.44;4974678;28;20050;-72
2022/06/19 09:40:16;;;;;;;6.85;2.20;;;;;;;-148.88;51.93;74384.06;4974113;28;20023;-72
2022/06/19 09:42:51;;;;;;;6.22;1.90;;;;;;;-148.88;53.10;74384.06;4973232;28;20031;-73
2022/06/19 09:45:21;;;;;;;5.93;2.15;;;;;;;-148.88;51.76;74371.88;4972619;28;20477;-73
2022/06/19 09:48:19;;;;;;;8.45;2.15;;;;;;;-148.88;52.67;74371.88;4974133;28;20027;-73
2022/06/19 09:51:01;;;;;;;7.75;1.92;;;;;;;-148.88;50.79;74402.34;4973104;28;20027;-72
2022/06/19 09:53:34;;;;;;;7.93;2.58;;;;;;;-148.88;51.37;74367.81;4973053;28;20038;-72
2022/06/19 09:56:24;;;;;;;8.25;2.13;;;;;;;-148.88;51.53;74321.13;4972983;28;20507;-73
2022/06/19 09:58:53;;;;;;;7.35;1.65;;;;;;;-148.88;51.04;74351.56;4989094;28;20027;-73
2022/06/19 10:01:20;;;;;;;7.30;1.90;;;;;;;-148.88;50.94;74361.72;4972793;28;20030;-73
2022/06/19 10:03:57;;;;;;;5.70;1.55;;;;;;;-148.88;51.18;74361.72;4972790;28;20031;-73
2022/06/19 10:06:35;;;;;;;7.32;1.95;;;;;;;-148.88;50.28;74357.66;4972815;28;20027;-72
2022/06/19 10:09:21;;;;;;;6.78;1.83;;;;;;;-148.88;51.21;74406.41;4973984;28;20472;-73
2022/06/19 10:11:48;;;;;;;9.02;2.13;;;;;;;-148.88;50.94;74406.41;4988917;28;20404;-73
2022/06/19 10:14:38;;;;;;;7.38;2.25;;;;;;;-148.88;52.75;74436.84;4976268;28;20042;-73
2022/06/19 10:17:16;;;;;;;5.70;1.90;;;;;;;-148.88;51.79;74424.66;4977520;28;20062;-72
2022/06/19 10:20:16;;;;;;;6.63;2.15;;;;;;;-148.88;50.90;74398.28;4976162;28;20019;-72
2022/06/19 10:22:56;;;;;;;7.68;2.00;;;;;;;-148.88;50.27;74355.63;4977359;28;20392;-72
2022/06/19 10:25:48;;;;;;;5.85;1.70;;;;;;;-148.88;49.87;74304.88;4977298;28;20169;-72
2022/06/19 10:28:33;;;;;;;7.03;1.90;;;;;;;-148.88;50.78;74288.63;4992294;28;20058;-73
2022/06/19 10:31:11;;;;;;;6.90;1.42;;;;;;;-148.88;50.61;74203.34;4992331;28;20026;-73
2022/06/19 10:34:00;;;;;;;6.63;1.73;;;;;;;-148.88;49.75;74168.84;4992418;28;20118;-73
2022/06/19 10:37:11;;;;;;;8.10;1.90;;;;;;;-148.88;47.79;74189.13;4977198;28;20023;-72
2022/06/19 10:40:20;;;;;;;8.88;1.70;;;;;;;-148.88;46.67;74193.19;4977075;28;20054;-73
2022/06/19 10:43:05;;;;;;;10.68;1.80;;;;;;;-148.88;46.99;74189.13;4976932;28;20035;-73
2022/06/19 10:45:35;;;;;;;7.50;2.58;;;;;;;-148.88;49.76;74144.47;4975742;28;20019;-73
2022/06/19 10:48:10;;;;;;;9.10;2.08;;;;;;;-148.88;47.09;74101.81;4976922;28;20027;-73
2022/06/19 10:51:18;;;;;;;7.93;1.88;;;;;;;-148.88;47.52;74095.72;4991942;28;20031;-73
2022/06/19 10:53:53;;;;;;;4.82;1.70;;;;;;;-148.88;49.32;74128.22;4974810;28;20142;-72
2022/06/19 10:56:30;;;;;;;5.63;1.60;;;;;;;-148.88;49.31;74085.59;4976631;28;20105;-72
2022/06/19 10:58:56;;;;;;;6.00;1.60;;;;;;;-148.88;47.17;74071.38;4976622;28;20030;-73
2022/06/19 11:04:21;;;;;;;5.65;1.77;;;;;;;-148.88;49.24;74122.13;4977208;28;20428;-72
2022/06/19 11:06:53;;;;;;;7.80;1.80;;;;;;;-148.88;48.86;74154.63;4976561;28;20033;-72
2022/06/19 11:09:42;;;;;;;10.15;1.73;;;;;;;-148.88;48.53;74128.22;4991545;28;20019;-72
2022/06/19 11:12:18;;;;;;;7.63;2.00;;;;;;;-148.88;47.36;74132.28;4976816;28;20492;-72
2022/06/19 11:14:55;;;;;;;4.10;1.63;;;;;;;-148.88;48.53;74061.22;4976470;28;20103;-72
2022/06/19 11:17:35;;;;;;;8.95;1.63;;;;;;;-148.88;47.63;74002.34;4975134;28;20019;-72
2022/06/19 11:20:15;;;;;;;6.18;1.88;;;;;;;-148.88;46.46;73977.97;4976361;28;20468;-73
2022/06/19 11:22:42;;;;;;;9.52;2.45;;;;;;;-148.88;46.75;73971.88;4991101;28;20129;-72
2022/06/19 11:25:28;;;;;;;8.73;2.00;;;;;;;-148.88;46.25;73998.28;4998751;23;20141;-76
2022/06/19 11:28:14;;;;;;;9.13;2.03;;;;;;;-148.88;46.33;73953.63;4997419;28;20466;-76
2022/06/19 11:30:50;;;;;;;6.78;2.28;;;;;;;-148.88;45.70;73982.03;5014996;28;20044;-76
2022/06/19 11:33:28;;;;;;;8.15;2.15;;;;;;;-148.88;46.34;73908.94;5015264;28;20026;-76
2022/06/19 11:35:57;;;;;;;6.07;1.95;;;;;;;-148.88;46.76;73884.59;5014792;28;20021;-76
2022/06/19 11:38:44;;;;;;;9.02;2.00;;;;;;;-148.88;44.89;73913.00;5014977;28;20497;-75
2022/06/19 11:41:26;;;;;;;8.70;1.67;;;;;;;-148.88;46.07;73973.91;5013910;28;20506;-76
2022/06/19 11:44:15;;;;;;;7.05;1.98;;;;;;;-148.88;46.48;74014.53;5014194;28;20218;-75
2022/06/19 11:46:45;;;;;;;6.65;1.75;;;;;;;-148.88;46.80;73975.94;5014434;28;20022;-74